Time;durP1;ratioP1;P1;durP2;ratioP2;P2;SDS_P1;SDS_P2;PMS_P1;PMS_P2;Temp;Humidity;BMP_temperature;BMP_pressure;BME280_temperature;BME280_humidity;BME280_pressure;Samples;Min_cycle;Max_cycle;Signal;HPM_P1;HPM_P2
2023/05/30 00:00:13;;;;;;;;;;;12.90;54.10;;;;;;5054668;28;19920;-65
2023/05/30 00:02:41;;;;;;;;;;;13.10;54.10;;;;;;5054177;28;19917;-65
2023/05/30 00:05:07;;;;;;;;;;;13.20;54.90;;;;;;5068517;28;19913;-65
2023/05/30 00:07:33;;;;;;;;;;;13.30;54.90;;;;;;5054332;28;19994;-66
2023/05/30 00:09:58;;;;;;;;;;;13.30;54.90;;;;;;5050797;28;20302;-67
2023/05/30 00:12:24;;;;;;;;;;;13.50;55.10;;;;;;5053962;28;19917;-65
2023/05/30 00:14:50;;;;;;;;;;;13.60;55.10;;;;;;5054522;28;19921;-65
2023/05/30 00:17:16;;;;;;;;;;;13.70;55.20;;;;;;5053379;28;19917;-66
2023/05/30 00:19:42;;;;;;;;;;;13.80;55.10;;;;;;5053846;28;19920;-65
2023/05/30 00:22:08;;;;;;;;;;;13.90;54.60;;;;;;5053897;28;19920;-65
2023/05/30 00:24:33;;;;;;;;;;;14.00;54.30;;;;;;5053818;28;19932;-65
2023/05/30 00:26:59;;;;;;;;;;;14.10;54.10;;;;;;5053391;28;20004;-66
2023/05/30 00:29:25;;;;;;;;;;;14.20;54.00;;;;;;5053934;28;19908;-65
2023/05/30 00:31:50;;;;;;;;;;;14.30;54.40;;;;;;5053511;28;19917;-66
2023/05/30 00:34:15;;;;;;;;;;;14.30;54.30;;;;;;5053292;28;19913;-66
2023/05/30 00:36:41;;;;;;;;;;;14.40;54.00;;;;;;5054391;28;20003;-63
2023/05/30 00:39:06;;;;;;;;;;;14.50;53.90;;;;;;5053749;28;20329;-64
2023/05/30 00:41:32;;;;;;;;;;;14.50;54.00;;;;;;5053737;28;20445;-64
2023/05/30 00:43:58;;;;;;;;;;;14.60;54.20;;;;;;5053589;28;20111;-64
2023/05/30 00:46:25;;;;;;;;;;;14.60;54.80;;;;;;5053677;28;20364;-64
2023/05/30 00:48:50;;;;;;;;;;;14.70;54.90;;;;;;5036634;28;19917;-64
2023/05/30 00:51:17;;;;;;;;;;;14.70;54.90;;;;;;5033842;28;19940;-64
2023/05/30 00:53:43;;;;;;;;;;;14.70;54.90;;;;;;5033282;28;19921;-64
2023/05/30 00:56:09;;;;;;;;;;;14.70;54.80;;;;;;5033894;28;19915;-65
2023/05/30 00:58:35;;;;;;;;;;;14.80;54.70;;;;;;5033346;28;20332;-64
2023/05/30 01:01:01;;;;;;;;;;;14.80;54.60;;;;;;5050894;28;19913;-63
2023/05/30 01:03:32;;;;;;;;;;;14.90;54.40;;;;;;5058671;28;19962;-64
2023/05/30 01:06:01;;;;;;;;;;;14.90;54.50;;;;;;5068209;28;20217;-64
2023/05/30 01:08:27;;;;;;;;;;;14.90;54.40;;;;;;5052657;28;20334;-66
2023/05/30 01:10:54;;;;;;;;;;;14.90;54.40;;;;;;5052615;28;19962;-64
2023/05/30 01:13:19;;;;;;;;;;;14.90;54.50;;;;;;5052548;28;19970;-64
2023/05/30 01:15:47;;;;;;;;;;;14.90;54.60;;;;;;5052799;28;20269;-64
2023/05/30 01:18:17;;;;;;;;;;;14.90;54.50;;;;;;5051635;28;20036;-64
2023/05/30 01:20:45;;;;;;;;;;;15.00;54.60;;;;;;5052420;28;19928;-64
2023/05/30 01:23:14;;;;;;;;;;;15.00;54.50;;;;;;5052528;28;19939;-64
2023/05/30 01:25:59;;;;;;;;;;;15.00;54.60;;;;;;5051711;28;19913;-64
2023/05/30 01:28:28;;;;;;;;;;;15.00;54.70;;;;;;5051915;28;20300;-64
2023/05/30 01:30:55;;;;;;;;;;;15.00;54.90;;;;;;5052217;28;19920;-64
2023/05/30 01:33:21;;;;;;;;;;;15.00;55.00;;;;;;5052060;28;20063;-64
2023/05/30 01:35:47;;;;;;;;;;;15.00;55.00;;;;;;5056193;28;20050;-64
2023/05/30 01:38:13;;;;;;;;;;;14.90;55.00;;;;;;5053609;28;20379;-64
2023/05/30 01:40:39;;;;;;;;;;;14.90;55.00;;;;;;5052567;28;19939;-63
2023/05/30 01:43:17;;;;;;;;;;;15.00;55.10;;;;;;5052353;28;20423;-64
2023/05/30 01:45:57;;;;;;;;;;;14.90;55.10;;;;;;5051943;28;19917;-64
2023/05/30 01:48:39;;;;;;;;;;;14.90;55.10;;;;;;5051421;28;19924;-65
2023/05/30 01:51:07;;;;;;;;;;;14.90;55.20;;;;;;5052520;28;19912;-64
2023/05/30 01:53:37;;;;;;;;;;;14.90;55.20;;;;;;5040041;28;19956;-64
2023/05/30 01:56:05;;;;;;;;;;;14.90;55.20;;;;;;5032868;28;19913;-65
2023/05/30 01:58:32;;;;;;;;;;;14.90;55.20;;;;;;5032082;28;19913;-64
2023/05/30 02:00:58;;;;;;;;;;;14.90;55.40;;;;;;5032427;28;19913;-64
2023/05/30 02:03:24;;;;;;;;;;;14.90;55.40;;;;;;5024676;28;19923;-64
2023/05/30 02:05:49;;;;;;;;;;;14.90;55.40;;;;;;5059527;28;20356;-64
2023/05/30 02:08:15;;;;;;;;;;;15.00;55.50;;;;;;5051743;28;19938;-64
2023/05/30 02:10:40;;;;;;;;;;;15.00;55.50;;;;;;5051759;28;20300;-65
2023/05/30 02:13:06;;;;;;;;;;;15.00;55.50;;;;;;5051667;28;19919;-64
2023/05/30 02:15:31;;;;;;;;;;;15.00;55.40;;;;;;5051972;28;19917;-64
2023/05/30 02:17:59;;;;;;;;;;;15.00;55.30;;;;;;5051916;28;19920;-64
2023/05/30 02:20:24;;;;;;;;;;;15.00;55.50;;;;;;5051561;28;19966;-65
2023/05/30 02:22:50;;;;;;;;;;;15.00;55.50;;;;;;5051818;28;20369;-63
2023/05/30 02:25:15;;;;;;;;;;;15.00;55.60;;;;;;5051803;28;20066;-65
2023/05/30 02:27:42;;;;;;;;;;;14.90;55.60;;;;;;5051516;28;20035;-64
2023/05/30 02:30:07;;;;;;;;;;;14.90;55.60;;;;;;5051993;28;20395;-64
2023/05/30 02:32:32;;;;;;;;;;;15.00;55.70;;;;;;5051271;28;19913;-64
2023/05/30 02:34:58;;;;;;;;;;;14.90;55.60;;;;;;5051694;28;19947;-64
2023/05/30 02:37:23;;;;;;;;;;;15.00;55.40;;;;;;5069135;28;20312;-64
2023/05/30 02:39:49;;;;;;;;;;;15.00;55.20;;;;;;5071700;28;19952;-63
2023/05/30 02:42:14;;;;;;;;;;;15.00;55.10;;;;;;5071551;28;19921;-64
2023/05/30 02:44:40;;;;;;;;;;;15.00;55.40;;;;;;5071647;28;20011;-64
2023/05/30 02:47:05;;;;;;;;;;;15.00;55.60;;;;;;5071470;28;20497;-64
2023/05/30 02:49:31;;;;;;;;;;;15.00;55.60;;;;;;5062884;28;19935;-64
2023/05/30 02:51:57;;;;;;;;;;;15.00;55.50;;;;;;5051199;28;19943;-64
2023/05/30 02:54:23;;;;;;;;;;;15.00;55.50;;;;;;5050960;28;20011;-64
2023/05/30 02:56:48;;;;;;;;;;;15.00;55.40;;;;;;5051492;28;19964;-64
2023/05/30 02:59:14;;;;;;;;;;;15.00;55.30;;;;;;5051024;28;19909;-64
2023/05/30 03:01:39;;;;;;;;;;;15.00;55.40;;;;;;5051293;28;19913;-66
2023/05/30 03:04:04;;;;;;;;;;;15.00;55.40;;;;;;5050880;28;19970;-64
2023/05/30 03:06:31;;;;;;;;;;;15.00;55.30;;;;;;5052026;28;19928;-63
2023/05/30 03:08:59;;;;;;;;;;;15.10;55.20;;;;;;5043969;28;19939;-64
2023/05/30 03:11:25;;;;;;;;;;;15.20;55.10;;;;;;5031745;28;20280;-64
2023/05/30 03:13:51;;;;;;;;;;;15.20;55.10;;;;;;5031352;28;19925;-64
2023/05/30 03:16:17;;;;;;;;;;;15.20;55.00;;;;;;5031732;28;20306;-65
2023/05/30 03:18:42;;;;;;;;;;;15.20;55.00;;;;;;5031207;28;20007;-65
2023/05/30 03:21:08;;;;;;;;;;;15.20;55.00;;;;;;5039339;28;20369;-65
2023/05/30 03:23:34;;;;;;;;;;;15.20;55.00;;;;;;5051311;28;19917;-64
2023/05/30 03:25:59;;;;;;;;;;;15.20;55.00;;;;;;5051562;28;20336;-64
2023/05/30 03:28:25;;;;;;;;;;;15.20;55.10;;;;;;5051060;28;20011;-64
2023/05/30 03:30:50;;;;;;;;;;;15.20;55.10;;;;;;5051400;28;19919;-64
2023/05/30 03:33:16;;;;;;;;;;;15.20;55.10;;;;;;5050985;28;20375;-65
2023/05/30 03:35:42;;;;;;;;;;;15.20;55.20;;;;;;5054481;28;20265;-66
2023/05/30 03:38:08;;;;;;;;;;;15.20;55.10;;;;;;5071306;28;19958;-64
2023/05/30 03:40:33;;;;;;;;;;;15.20;55.00;;;;;;5073152;28;19920;-64
2023/05/30 03:42:59;;;;;;;;;;;15.20;54.90;;;;;;5074583;28;19968;-65
2023/05/30 03:45:24;;;;;;;;;;;15.30;54.80;;;;;;5074762;28;20373;-64
2023/05/30 03:47:50;;;;;;;;;;;15.30;54.70;;;;;;5074482;28;19961;-64
2023/05/30 03:50:15;;;;;;;;;;;15.30;54.60;;;;;;5074383;28;20021;-66
2023/05/30 03:52:41;;;;;;;;;;;15.30;54.60;;;;;;5074410;28;20017;-64
2023/05/30 03:55:06;;;;;;;;;;;15.40;54.50;;;;;;5074693;28;19919;-64
2023/05/30 03:57:32;;;;;;;;;;;15.50;54.40;;;;;;5074455;28;19916;-64
2023/05/30 03:59:57;;;;;;;;;;;15.40;54.30;;;;;;5074664;28;20348;-64
2023/05/30 04:02:23;;;;;;;;;;;15.50;54.30;;;;;;5074112;28;19962;-65
2023/05/30 04:04:48;;;;;;;;;;;15.50;54.20;;;;;;5056002;28;19919;-64
2023/05/30 04:07:15;;;;;;;;;;;15.50;54.20;;;;;;5053570;28;19928;-64
2023/05/30 04:09:40;;;;;;;;;;;15.50;54.20;;;;;;5038107;28;20327;-64
2023/05/30 04:12:06;;;;;;;;;;;15.50;54.10;;;;;;5036845;28;19921;-64
2023/05/30 04:14:31;;;;;;;;;;;15.60;54.10;;;;;;5053926;28;19909;-64
2023/05/30 04:16:57;;;;;;;;;;;15.50;54.10;;;;;;5054291;28;20003;-64
2023/05/30 04:19:22;;;;;;;;;;;15.70;54.10;;;;;;5053874;28;19947;-64
2023/05/30 04:21:48;;;;;;;;;;;15.60;53.90;;;;;;5054183;28;19912;-66
2023/05/30 04:24:14;;;;;;;;;;;15.60;53.90;;;;;;5051991;28;19916;-65
2023/05/30 04:26:40;;;;;;;;;;;15.70;53.90;;;;;;5033957;28;19921;-66
2023/05/30 04:29:08;;;;;;;;;;;15.70;53.80;;;;;;5016078;28;19913;-64
2023/05/30 04:31:33;;;;;;;;;;;15.70;53.80;;;;;;5034197;28;19917;-64
2023/05/30 04:33:59;;;;;;;;;;;15.70;53.70;;;;;;5033780;28;20008;-64
2023/05/30 04:36:27;;;;;;;;;;;15.70;53.70;;;;;;5052432;28;19912;-64
2023/05/30 04:38:52;;;;;;;;;;;15.80;53.70;;;;;;5073471;28;20394;-64
2023/05/30 04:41:20;;;;;;;;;;;15.80;53.60;;;;;;5057115;28;19913;-66
2023/05/30 04:43:57;;;;;;;;;;;15.90;53.50;;;;;;5034951;28;19925;-64
2023/05/30 04:46:23;;;;;;;;;;;15.90;53.50;;;;;;5041671;28;19928;-64
2023/05/30 04:48:51;;;;;;;;;;;16.00;53.40;;;;;;5033532;28;20369;-64
2023/05/30 04:51:17;;;;;;;;;;;16.00;53.30;;;;;;5051919;28;19912;-65
2023/05/30 04:53:42;;;;;;;;;;;16.00;53.10;;;;;;5052381;28;19924;-64
2023/05/30 04:56:08;;;;;;;;;;;16.10;53.10;;;;;;5052881;28;20379;-64
2023/05/30 04:58:33;;;;;;;;;;;16.10;53.00;;;;;;5052906;28;19923;-65
2023/05/30 05:00:59;;;;;;;;;;;16.20;52.90;;;;;;5040251;28;20004;-64
2023/05/30 05:03:24;;;;;;;;;;;16.20;52.90;;;;;;5038117;28;19920;-66
2023/05/30 05:05:50;;;;;;;;;;;16.30;52.70;;;;;;5053415;28;19913;-66
2023/05/30 05:08:16;;;;;;;;;;;16.40;52.50;;;;;;5052845;28;20008;-65
2023/05/30 05:10:41;;;;;;;;;;;16.50;52.40;;;;;;5053002;28;20344;-64
2023/05/30 05:13:06;;;;;;;;;;;16.50;52.30;;;;;;5052926;28;20257;-64
2023/05/30 05:15:32;;;;;;;;;;;16.70;52.10;;;;;;5052957;28;19920;-64
2023/05/30 05:17:58;;;;;;;;;;;16.70;51.80;;;;;;5051059;28;19916;-65
2023/05/30 05:20:24;;;;;;;;;;;16.80;51.70;;;;;;5032985;28;20008;-65
2023/05/30 05:22:50;;;;;;;;;;;16.80;51.50;;;;;;5032603;28;19957;-64
2023/05/30 05:25:15;;;;;;;;;;;17.00;51.10;;;;;;5033207;28;20277;-65
2023/05/30 05:27:41;;;;;;;;;;;17.00;51.00;;;;;;5031841;28;20384;-65
2023/05/30 05:30:08;;;;;;;;;;;17.00;50.70;;;;;;5050289;28;20263;-64
2023/05/30 05:32:36;;;;;;;;;;;17.00;50.60;;;;;;5052346;28;19913;-64
2023/05/30 05:35:02;;;;;;;;;;;17.00;50.60;;;;;;5052797;28;20331;-65
2023/05/30 05:37:27;;;;;;;;;;;17.00;50.60;;;;;;5070447;28;20367;-65
2023/05/30 05:39:53;;;;;;;;;;;17.00;50.50;;;;;;5072346;28;19961;-65
2023/05/30 05:42:18;;;;;;;;;;;17.10;50.30;;;;;;5065668;28;19921;-64
2023/05/30 05:44:43;;;;;;;;;;;17.10;50.30;;;;;;5045854;28;19913;-65
2023/05/30 05:47:09;;;;;;;;;;;17.10;50.30;;;;;;5052379;28;19938;-65
2023/05/30 05:49:36;;;;;;;;;;;17.20;50.30;;;;;;5051518;28;21367;-64
2023/05/30 05:52:02;;;;;;;;;;;17.20;50.20;;;;;;5052453;28;20307;-67
2023/05/30 05:54:27;;;;;;;;;;;17.30;50.00;;;;;;5051031;28;20012;-65
2023/05/30 05:56:52;;;;;;;;;;;17.30;50.00;;;;;;5052080;28;19917;-64
2023/05/30 05:59:18;;;;;;;;;;;17.40;49.80;;;;;;5052200;28;19946;-65
2023/05/30 06:01:43;;;;;;;;;;;17.50;49.50;;;;;;5051050;28;20005;-65
2023/05/30 06:04:11;;;;;;;;;;;17.50;49.40;;;;;;5047179;28;20333;-64
2023/05/30 06:06:36;;;;;;;;;;;17.60;49.40;;;;;;5052215;28;19970;-65
2023/05/30 06:09:02;;;;;;;;;;;17.60;49.10;;;;;;5051439;28;20331;-64
2023/05/30 06:11:27;;;;;;;;;;;17.60;49.00;;;;;;5051223;28;20353;-65
2023/05/30 06:13:53;;;;;;;;;;;17.70;49.00;;;;;;5059402;28;19916;-64
2023/05/30 06:16:18;;;;;;;;;;;17.70;48.90;;;;;;5055102;28;19966;-65
2023/05/30 06:18:44;;;;;;;;;;;17.80;48.80;;;;;;5049234;28;19921;-65
2023/05/30 06:21:10;;;;;;;;;;;17.80;48.70;;;;;;5051050;28;19913;-65
2023/05/30 06:23:36;;;;;;;;;;;17.90;48.70;;;;;;5046881;28;20011;-66
2023/05/30 06:26:02;;;;;;;;;;;18.00;48.50;;;;;;5048842;28;19999;-65
2023/05/30 06:28:27;;;;;;;;;;;18.20;48.30;;;;;;5057953;28;20346;-65
2023/05/30 06:30:52;;;;;;;;;;;18.30;47.80;;;;;;5049364;28;19913;-65
2023/05/30 06:33:20;;;;;;;;;;;18.40;47.80;;;;;;5044854;28;20323;-65
2023/05/30 06:35:45;;;;;;;;;;;18.40;47.60;;;;;;5055451;28;19913;-65
2023/05/30 06:38:11;;;;;;;;;;;18.60;47.30;;;;;;5056072;28;19917;-66
2023/05/30 06:40:36;;;;;;;;;;;18.70;46.40;;;;;;5049664;28;19916;-65
2023/05/30 06:43:02;;;;;;;;;;;18.70;45.80;;;;;;5047416;28;19924;-65
2023/05/30 06:45:28;;;;;;;;;;;18.80;45.80;;;;;;5050972;28;19995;-65
2023/05/30 06:47:53;;;;;;;;;;;18.80;45.10;;;;;;5050778;28;19925;-65
2023/05/30 06:50:19;;;;;;;;;;;19.00;45.00;;;;;;5050550;28;19936;-65
2023/05/30 06:52:44;;;;;;;;;;;19.20;44.70;;;;;;5047356;28;20032;-65
2023/05/30 06:55:10;;;;;;;;;;;19.40;44.30;;;;;;5051098;28;19913;-65
2023/05/30 06:57:36;;;;;;;;;;;19.70;43.50;;;;;;5032082;28;19925;-65
2023/05/30 07:00:03;;;;;;;;;;;19.70;43.20;;;;;;5050258;28;19944;-66
2023/05/30 07:02:29;;;;;;;;;;;19.90;43.00;;;;;;5046928;28;19924;-67
2023/05/30 07:04:54;;;;;;;;;;;20.00;43.10;;;;;;5050930;28;20264;-65
2023/05/30 07:07:20;;;;;;;;;;;20.40;43.40;;;;;;5032838;28;20411;-66
2023/05/30 07:09:48;;;;;;;;;;;21.20;42.60;;;;;;5046587;28;20276;-66
2023/05/30 07:12:13;;;;;;;;;;;21.70;40.40;;;;;;5031909;28;20008;-67
2023/05/30 07:14:39;;;;;;;;;;;21.90;39.20;;;;;;5045376;28;19944;-65
2023/05/30 07:17:06;;;;;;;;;;;22.20;38.60;;;;;;5052823;28;20392;-66
2023/05/30 07:19:32;;;;;;;;;;;22.20;37.90;;;;;;5051173;28;19913;-65
2023/05/30 07:21:57;;;;;;;;;;;22.30;38.60;;;;;;5054938;28;20429;-66
2023/05/30 07:24:23;;;;;;;;;;;23.00;38.90;;;;;;5052384;28;20385;-66
2023/05/30 07:26:50;;;;;;;;;;;23.50;37.10;;;;;;5055226;28;20319;-65
2023/05/30 07:29:15;;;;;;;;;;;23.80;36.00;;;;;;5055131;28;20418;-65
2023/05/30 07:31:41;;;;;;;;;;;24.00;36.20;;;;;;5053802;28;19917;-66
2023/05/30 07:34:06;;;;;;;;;;;24.30;35.40;;;;;;5046021;28;19916;-66
2023/05/30 07:36:32;;;;;;;;;;;24.40;34.90;;;;;;5058087;28;20311;-66
2023/05/30 07:38:58;;;;;;;;;;;24.30;35.00;;;;;;5054923;28;20042;-66
2023/05/30 07:41:23;;;;;;;;;;;24.40;34.90;;;;;;5054512;28;19917;-66
2023/05/30 07:43:49;;;;;;;;;;;24.50;34.60;;;;;;5052448;28;19924;-65
2023/05/30 07:46:15;;;;;;;;;;;24.50;34.40;;;;;;5054817;28;19959;-66
2023/05/30 07:48:40;;;;;;;;;;;24.60;34.30;;;;;;5032818;28;19919;-67
2023/05/30 07:51:09;;;;;;;;;;;24.50;34.30;;;;;;5054647;28;19933;-65
2023/05/30 07:53:34;;;;;;;;;;;24.60;34.40;;;;;;5051310;28;19913;-66
2023/05/30 07:56:00;;;;;;;;;;;24.70;34.10;;;;;;5053315;28;19927;-66
2023/05/30 07:58:25;;;;;;;;;;;24.90;33.90;;;;;;5054749;28;19920;-66
2023/05/30 08:00:50;;;;;;;;;;;25.00;33.90;;;;;;5054632;28;19939;-65
2023/05/30 08:03:19;;;;;;;;;;;24.90;33.30;;;;;;5051559;28;19970;-66
2023/05/30 08:05:46;;;;;;;;;;;24.80;33.10;;;;;;5054821;28;19920;-66
2023/05/30 08:08:12;;;;;;;;;;;24.70;32.90;;;;;;5034857;28;19974;-65
2023/05/30 08:10:38;;;;;;;;;;;24.50;33.00;;;;;;5054902;28;20538;-69
2023/05/30 08:13:03;;;;;;;;;;;24.70;33.50;;;;;;5049371;28;19913;-69
2023/05/30 08:15:29;;;;;;;;;;;25.10;33.80;;;;;;5037190;28;19913;-69
2023/05/30 08:17:56;;;;;;;;;;;25.50;33.20;;;;;;5054429;28;19958;-69
2023/05/30 08:20:22;;;;;;;;;;;26.00;33.20;;;;;;5053981;28;20376;-69
2023/05/30 08:22:48;;;;;;;;;;;26.30;31.90;;;;;;5050806;28;19974;-69
2023/05/30 08:25:13;;;;;;;;;;;26.50;31.80;;;;;;5053583;28;19958;-69
2023/05/30 08:27:39;;;;;;;;;;;26.90;31.60;;;;;;5053588;28;19931;-69
2023/05/30 08:30:05;;;;;;;;;;;27.20;30.90;;;;;;5053560;28;20335;-69
2023/05/30 08:32:32;;;;;;;;;;;27.20;30.50;;;;;;5051818;28;20024;-69
2023/05/30 08:34:58;;;;;;;;;;;27.50;30.00;;;;;;5048350;28;19917;-70
2023/05/30 08:37:23;;;;;;;;;;;27.70;29.70;;;;;;5050966;28;20275;-69
2023/05/30 08:39:49;;;;;;;;;;;28.10;29.40;;;;;;5052049;28;20435;-70
2023/05/30 08:42:14;;;;;;;;;;;28.70;29.30;;;;;;5055755;28;19916;-69
2023/05/30 08:44:40;;;;;;;;;;;29.30;28.30;;;;;;5050648;28;19917;-69
2023/05/30 08:47:11;;;;;;;;;;;29.70;26.80;;;;;;5053456;28;19917;-69
2023/05/30 08:49:40;;;;;;;;;;;29.90;26.10;;;;;;5052580;28;19921;-69
2023/05/30 08:52:05;;;;;;;;;;;30.20;26.00;;;;;;5053500;28;20391;-69
2023/05/30 08:54:51;;;;;;;;;;;30.50;25.40;;;;;;5049516;28;19912;-69
2023/05/30 08:57:37;;;;;;;;;;;30.60;25.00;;;;;;5054550;28;20371;-69
2023/05/30 09:00:05;;;;;;;;;;;30.80;24.60;;;;;;5051884;28;19923;-70
2023/05/30 09:02:33;;;;;;;;;;;30.90;24.50;;;;;;5048365;28;19976;-69
2023/05/30 09:04:59;;;;;;;;;;;30.90;24.00;;;;;;5048697;28;19917;-69
2023/05/30 09:07:26;;;;;;;;;;;30.80;24.00;;;;;;5047757;28;19924;-68
2023/05/30 09:09:52;;;;;;;;;;;31.00;24.40;;;;;;5044765;28;19966;-69
2023/05/30 09:12:17;;;;;;;;;;;31.30;24.30;;;;;;5047022;28;19997;-70
2023/05/30 09:14:43;;;;;;;;;;;31.70;24.10;;;;;;5046489;28;19924;-69
2023/05/30 09:17:09;;;;;;;;;;;31.90;23.50;;;;;;5044238;28;19923;-70
2023/05/30 09:19:36;;;;;;;;;;;31.90;23.00;;;;;;5052906;28;20391;-69
2023/05/30 09:22:02;;;;;;;;;;;31.90;23.10;;;;;;5052096;28;20273;-70
2023/05/30 09:24:47;;;;;;;;;;;32.00;22.80;;;;;;5048290;28;19943;-69
2023/05/30 09:27:12;;;;;;;;;;;32.20;22.60;;;;;;5051411;28;19917;-71
2023/05/30 09:29:42;;;;;;;;;;;32.20;22.30;;;;;;5052728;28;19928;-69
2023/05/30 09:32:07;;;;;;;;;;;32.40;22.80;;;;;;5052551;28;19932;-71
2023/05/30 09:34:34;;;;;;;;;;;32.70;22.30;;;;;;5034661;28;20380;-70
2023/05/30 09:36:59;;;;;;;;;;;33.20;22.80;;;;;;5066226;28;19922;-70
2023/05/30 09:39:26;;;;;;;;;;;33.80;22.50;;;;;;5054907;28;19924;-70
2023/05/30 09:41:54;;;;;;;;;;;34.30;21.40;;;;;;5052282;28;19917;-70
2023/05/30 09:44:20;;;;;;;;;;;34.40;20.90;;;;;;5051466;28;20381;-69
2023/05/30 09:46:45;;;;;;;;;;;34.20;20.10;;;;;;5050120;28;19967;-70
2023/05/30 09:49:14;;;;;;;;;;;33.80;20.50;;;;;;5055507;28;19917;-70
2023/05/30 09:51:40;;;;;;;;;;;33.30;20.90;;;;;;5051829;28;19954;-70
2023/05/30 09:54:06;;;;;;;;;;;33.30;21.10;;;;;;5043125;28;19920;-70
2023/05/30 09:56:36;;;;;;;;;;;33.40;21.50;;;;;;5051775;28;20373;-71
2023/05/30 09:59:02;;;;;;;;;;;33.80;21.60;;;;;;5051772;28;20482;-71
2023/05/30 10:01:35;;;;;;;;;;;34.00;21.20;;;;;;5051931;28;19909;-70
2023/05/30 10:04:00;;;;;;;;;;;34.10;20.70;;;;;;5046844;28;19921;-70
2023/05/30 10:06:26;;;;;;;;;;;34.00;21.10;;;;;;5051486;28;19931;-70
2023/05/30 10:08:52;;;;;;;;;;;34.20;20.70;;;;;;5052080;28;19923;-70
2023/05/30 10:11:17;;;;;;;;;;;34.00;20.60;;;;;;5051654;28;19909;-70
2023/05/30 10:13:43;;;;;;;;;;;33.90;21.10;;;;;;5047152;28;20410;-70
2023/05/30 10:16:13;;;;;;;;;;;34.10;21.10;;;;;;5051800;28;20005;-70
2023/05/30 10:18:42;;;;;;;;;;;34.30;21.10;;;;;;5052434;28;19916;-71
2023/05/30 10:21:09;;;;;;;;;;;34.10;20.90;;;;;;5047274;28;19917;-70
2023/05/30 10:23:35;;;;;;;;;;;33.40;21.10;;;;;;5045502;28;20011;-70
2023/05/30 10:26:02;;;;;;;;;;;32.60;21.50;;;;;;5051330;28;19948;-70
2023/05/30 10:28:29;;;;;;;;;;;32.00;22.20;;;;;;5035108;28;19924;-69
2023/05/30 10:30:56;;;;;;;;;;;31.70;22.90;;;;;;5048049;28;19927;-69
2023/05/30 10:33:21;;;;;;;;;;;31.50;23.00;;;;;;5042733;28;19917;-69
2023/05/30 10:35:47;;;;;;;;;;;31.50;23.50;;;;;;5054701;28;19961;-69
2023/05/30 10:38:13;;;;;;;;;;;31.40;23.70;;;;;;5071695;28;19916;-70
2023/05/30 10:40:59;;;;;;;;;;;31.70;23.80;;;;;;5054889;28;19916;-69
2023/05/30 10:43:43;;;;;;;;;;;32.10;23.90;;;;;;5044891;28;20406;-70
2023/05/30 10:46:12;;;;;;;;;;;32.20;23.10;;;;;;5051125;28;19955;-70
2023/05/30 10:48:44;;;;;;;;;;;32.00;22.80;;;;;;5051246;28;19923;-69
2023/05/30 10:51:11;;;;;;;;;;;32.10;23.00;;;;;;5057023;28;20706;-69
2023/05/30 10:53:40;;;;;;;;;;;32.30;23.10;;;;;;5053374;28;19959;-69
2023/05/30 10:56:26;;;;;;;;;;;32.80;23.10;;;;;;5056716;28;19917;-69
2023/05/30 10:58:55;;;;;;;;;;;32.90;22.40;;;;;;5057695;28;19956;-69
2023/05/30 11:01:26;;;;;;;;;;;32.70;22.60;;;;;;5056334;28;20262;-69
2023/05/30 11:03:56;;;;;;;;;;;32.70;22.80;;;;;;5045072;28;19923;-69
2023/05/30 11:06:21;;;;;;;;;;;32.60;23.00;;;;;;5056397;28;19991;-69
2023/05/30 11:08:50;;;;;;;;;;;32.70;22.90;;;;;;5057658;28;19917;-69
2023/05/30 11:11:16;;;;;;;;;;;32.80;22.90;;;;;;5056817;28;19908;-69
2023/05/30 11:13:49;;;;;;;;;;;33.00;22.70;;;;;;5035235;28;19920;-68
2023/05/30 11:16:22;;;;;;;;;;;32.90;22.60;;;;;;5056636;28;19917;-69
2023/05/30 11:18:50;;;;;;;;;;;32.80;22.60;;;;;;5057729;28;20434;-69
2023/05/30 11:21:15;;;;;;;;;;;32.80;22.80;;;;;;5056177;28;20283;-70
2023/05/30 11:23:58;;;;;;;;;;;33.00;22.90;;;;;;5053143;28;20007;-68
2023/05/30 11:26:44;;;;;;;;;;;33.30;22.80;;;;;;5056971;28;19916;-69
2023/05/30 11:29:28;;;;;;;;;;;33.30;22.30;;;;;;5057591;28;19917;-68
2023/05/30 11:31:53;;;;;;;;;;;33.30;22.80;;;;;;5056339;28;20019;-68
2023/05/30 11:34:19;;;;;;;;;;;32.90;22.60;;;;;;5052112;28;20019;-71
2023/05/30 11:36:46;;;;;;;;;;;32.20;23.10;;;;;;5069612;28;20003;-69
2023/05/30 11:39:11;;;;;;;;;;;31.60;23.80;;;;;;5064770;28;20412;-69
2023/05/30 11:41:37;;;;;;;;;;;31.30;24.50;;;;;;5057290;28;20007;-69
2023/05/30 11:44:03;;;;;;;;;;;31.00;24.40;;;;;;5052709;28;20299;-69
2023/05/30 11:46:28;;;;;;;;;;;30.80;24.70;;;;;;5056184;28;19913;-69
2023/05/30 11:49:00;;;;;;;;;;;30.80;25.30;;;;;;5057828;28;19966;-70
2023/05/30 11:51:26;;;;;;;;;;;30.80;25.30;;;;;;5056025;28;19916;-70
2023/05/30 11:53:51;;;;;;;;;;;30.50;25.90;;;;;;5054787;28;19921;-69
2023/05/30 11:56:17;;;;;;;;;;;30.40;26.10;;;;;;5057841;28;20315;-69
2023/05/30 11:58:42;;;;;;;;;;;30.30;26.30;;;;;;5058618;28;19917;-71
2023/05/30 12:01:07;;;;;;;;;;;30.40;26.60;;;;;;5056129;28;19916;-69
2023/05/30 12:03:33;;;;;;;;;;;30.30;26.30;;;;;;5049044;28;19912;-69
2023/05/30 12:06:09;;;;;;;;;;;30.30;26.70;;;;;;5054328;28;20341;-69
2023/05/30 12:08:38;;;;;;;;;;;30.30;26.80;;;;;;5054593;28;19923;-69
2023/05/30 12:11:04;;;;;;;;;;;30.20;26.60;;;;;;5053503;28;19990;-69
2023/05/30 12:13:29;;;;;;;;;;;30.00;26.80;;;;;;5049903;28;20047;-69
2023/05/30 12:15:55;;;;;;;;;;;29.70;26.90;;;;;;5053582;28;19917;-69
2023/05/30 12:18:20;;;;;;;;;;;29.40;27.70;;;;;;5055397;28;19966;-67
2023/05/30 12:20:47;;;;;;;;;;;29.20;27.80;;;;;;5055276;28;19920;-69
2023/05/30 12:23:13;;;;;;;;;;;28.80;28.10;;;;;;5049290;28;20043;-69
2023/05/30 12:25:39;;;;;;;;;;;28.80;28.50;;;;;;5050422;28;20359;-68
2023/05/30 12:28:05;;;;;;;;;;;28.80;28.20;;;;;;5054163;28;19917;-69
2023/05/30 12:30:34;;;;;;;;;;;28.90;28.40;;;;;;5047667;28;20427;-69
2023/05/30 12:33:11;;;;;;;;;;;29.10;28.70;;;;;;5044977;28;20484;-69
2023/05/30 12:35:39;;;;;;;;;;;29.20;28.60;;;;;;5055139;28;19921;-70
2023/05/30 12:38:04;;;;;;;;;;;29.10;28.50;;;;;;5054209;28;19944;-70
2023/05/30 12:40:29;;;;;;;;;;;29.00;28.80;;;;;;5052493;28;19944;-69
2023/05/30 12:42:56;;;;;;;;;;;28.90;28.90;;;;;;5048934;28;20299;-68
2023/05/30 12:45:22;;;;;;;;;;;28.80;29.30;;;;;;5051807;28;19917;-69
2023/05/30 12:47:47;;;;;;;;;;;28.80;29.70;;;;;;5053779;28;20012;-70
2023/05/30 12:50:13;;;;;;;;;;;28.70;29.30;;;;;;5052335;28;20365;-69
2023/05/30 12:52:38;;;;;;;;;;;28.70;29.40;;;;;;5048394;28;19944;-69
2023/05/30 12:55:04;;;;;;;;;;;28.50;29.70;;;;;;5050845;28;19956;-69
2023/05/30 12:57:30;;;;;;;;;;;28.40;29.70;;;;;;5053284;28;20338;-69
2023/05/30 12:59:56;;;;;;;;;;;28.20;29.90;;;;;;5050153;28;19916;-68
2023/05/30 13:02:25;;;;;;;;;;;28.30;30.10;;;;;;5052510;28;19920;-69
2023/05/30 13:04:52;;;;;;;;;;;28.40;30.40;;;;;;5049990;28;20326;-69
2023/05/30 13:07:17;;;;;;;;;;;28.20;30.00;;;;;;5053382;28;20368;-69
2023/05/30 13:09:44;;;;;;;;;;;27.90;30.40;;;;;;5051876;28;19935;-68
2023/05/30 13:12:09;;;;;;;;;;;27.70;30.70;;;;;;5051295;28;19920;-69
2023/05/30 13:14:39;;;;;;;;;;;27.60;31.40;;;;;;5048838;28;19913;-72
2023/05/30 13:17:05;;;;;;;;;;;27.80;31.70;;;;;;5051478;28;20276;-70
2023/05/30 13:19:31;;;;;;;;;;;27.80;31.10;;;;;;5051431;28;19917;-69
2023/05/30 13:21:56;;;;;;;;;;;27.60;31.20;;;;;;5052773;28;19922;-69
2023/05/30 13:24:22;;;;;;;;;;;27.80;31.70;;;;;;5035810;28;19917;-70
2023/05/30 13:26:47;;;;;;;;;;;28.10;31.60;;;;;;5051554;28;19917;-69
2023/05/30 13:29:12;;;;;;;;;;;28.00;31.20;;;;;;5051570;28;19974;-69
2023/05/30 13:31:38;;;;;;;;;;;27.80;31.40;;;;;;5052618;28;19909;-69
2023/05/30 13:34:03;;;;;;;;;;;27.60;31.60;;;;;;5047384;28;19923;-69
2023/05/30 13:36:29;;;;;;;;;;;27.20;32.10;;;;;;5061922;28;20007;-69
2023/05/30 13:38:54;;;;;;;;;;;27.00;32.50;;;;;;5063014;28;19995;-68
2023/05/30 13:41:21;;;;;;;;;;;26.90;32.80;;;;;;5051441;28;19912;-68
2023/05/30 13:43:46;;;;;;;;;;;26.90;33.00;;;;;;5047324;28;19929;-68
2023/05/30 13:46:12;;;;;;;;;;;27.10;33.20;;;;;;5050356;28;20330;-69
2023/05/30 13:48:37;;;;;;;;;;;27.20;32.70;;;;;;5051374;28;19916;-68
2023/05/30 13:51:03;;;;;;;;;;;27.00;32.60;;;;;;5051300;28;19928;-69
2023/05/30 13:53:31;;;;;;;;;;;26.80;33.00;;;;;;5048928;28;19927;-68
2023/05/30 13:55:57;;;;;;;;;;;26.70;33.30;;;;;;5049961;28;20274;-66
2023/05/30 13:58:22;;;;;;;;;;;26.60;33.30;;;;;;5052171;28;19917;-66
2023/05/30 14:00:48;;;;;;;;;;;26.40;33.40;;;;;;5051075;28;19929;-65
2023/05/30 14:03:13;;;;;;;;;;;26.20;33.60;;;;;;5048224;28;19913;-65
2023/05/30 14:05:39;;;;;;;;;;;26.00;34.20;;;;;;5050655;28;19913;-66
2023/05/30 14:08:04;;;;;;;;;;;25.90;34.60;;;;;;5052024;28;20014;-66
2023/05/30 14:10:30;;;;;;;;;;;25.90;34.60;;;;;;5050742;28;19913;-67
2023/05/30 14:12:56;;;;;;;;;;;25.80;34.60;;;;;;5036255;28;19912;-67